Time;durP1;ratioP1;P1;durP2;ratioP2;P2;SDS_P1;SDS_P2;PMS_P1;PMS_P2;Temp;Humidity;BMP_temperature;BMP_pressure;BME280_temperature;BME280_humidity;BME280_pressure;Samples;Min_cycle;Max_cycle;Signal;HPM_P1;HPM_P2
2023/09/04 00:02:17;;;;;;;12.35;2.70;;;;;;;;;;5067993;28;20499;-76
2023/09/04 00:04:47;;;;;;;3.63;2.55;;;;;;;;;;5071890;28;20044;-75
2023/09/04 00:07:17;;;;;;;3.55;2.60;;;;;;;;;;5080703;28;20040;-76
2023/09/04 00:09:47;;;;;;;4.90;2.47;;;;;;;;;;5082773;28;20102;-77
2023/09/04 00:12:18;;;;;;;4.72;2.50;;;;;;;;;;5083325;28;20067;-75
2023/09/04 00:14:49;;;;;;;3.40;2.38;;;;;;;;;;5083415;28;20048;-77
2023/09/04 00:17:20;;;;;;;5.78;3.25;;;;;;;;;;5078421;28;20048;-76
2023/09/04 00:19:51;;;;;;;3.15;2.47;;;;;;;;;;5073563;28;20058;-75
2023/09/04 00:22:20;;;;;;;4.13;2.70;;;;;;;;;;5069499;28;20040;-74
2023/09/04 00:24:51;;;;;;;3.45;2.38;;;;;;;;;;5072344;28;20060;-77
2023/09/04 00:27:23;;;;;;;3.92;2.60;;;;;;;;;;5071296;28;20052;-76
2023/09/04 00:29:53;;;;;;;4.72;2.47;;;;;;;;;;5071933;28;20048;-76
2023/09/04 00:32:23;;;;;;;4.43;2.65;;;;;;;;;;5081564;28;20616;-75
2023/09/04 00:34:53;;;;;;;4.68;2.28;;;;;;;;;;5066762;28;20048;-76
2023/09/04 00:37:24;;;;;;;3.25;2.53;;;;;;;;;;5066140;28;20044;-77
2023/09/04 00:39:55;;;;;;;10.15;2.70;;;;;;;;;;5073156;28;20491;-74
2023/09/04 00:42:29;;;;;;;5.60;2.55;;;;;;;;;;5077206;28;20044;-74
2023/09/04 00:45:01;;;;;;;3.83;2.50;;;;;;;;;;5071089;28;20048;-73
2023/09/04 00:47:31;;;;;;;3.50;2.90;;;;;;;;;;5073284;28;20044;-74
2023/09/04 00:50:02;;;;;;;7.85;2.67;;;;;;;;;;5072088;28;20048;-74
2023/09/04 00:52:33;;;;;;;5.75;2.90;;;;;;;;;;5069014;28;20142;-78
2023/09/04 00:55:05;;;;;;;7.60;3.13;;;;;;;;;;5045524;28;20119;-74
2023/09/04 00:57:37;;;;;;;5.20;2.88;;;;;;;;;;5061851;28;20435;-74
2023/09/04 01:00:12;;;;;;;8.05;2.75;;;;;;;;;;5062429;28;20048;-75
2023/09/04 01:02:43;;;;;;;4.80;2.88;;;;;;;;;;5060245;28;20048;-76
2023/09/04 01:05:14;;;;;;;5.07;2.30;;;;;;;;;;5061079;28;20048;-75
2023/09/04 01:07:44;;;;;;;6.03;2.42;;;;;;;;;;5060707;28;20511;-76
2023/09/04 01:10:15;;;;;;;7.55;3.70;;;;;;;;;;5060515;28;20063;-75
2023/09/04 01:12:50;;;;;;;10.88;5.82;;;;;;;;;;5066616;28;20049;-75
2023/09/04 01:15:24;;;;;;;7.20;2.90;;;;;;;;;;5070876;28;20538;-76
2023/09/04 01:17:54;;;;;;;3.75;2.95;;;;;;;;;;5072347;28;20051;-75
2023/09/04 01:20:33;;;;;;;6.60;3.67;;;;;;;;;;5072599;28;20482;-75
2023/09/04 01:23:04;;;;;;;4.60;2.40;;;;;;;;;;5069584;28;20420;-75
2023/09/04 01:25:52;;;;;;;7.30;3.05;;;;;;;;;;5070448;28;20049;-76
2023/09/04 01:28:39;;;;;;;7.10;2.72;;;;;;;;;;5070869;28;20407;-76
2023/09/04 01:31:15;;;;;;;9.45;2.97;;;;;;;;;;5063411;28;20499;-76
2023/09/04 01:33:51;;;;;;;5.75;2.78;;;;;;;;;;5061278;28;20051;-74
2023/09/04 01:36:25;;;;;;;9.98;2.95;;;;;;;;;;5068126;28;20048;-77
2023/09/04 01:38:56;;;;;;;4.40;2.53;;;;;;;;;;5072034;28;20055;-75
2023/09/04 01:41:26;;;;;;;8.57;3.17;;;;;;;;;;5069775;28;20037;-77
2023/09/04 01:43:58;;;;;;;3.72;2.65;;;;;;;;;;5070386;28;20051;-76
2023/09/04 01:46:29;;;;;;;7.45;3.00;;;;;;;;;;5073337;28;20051;-75
2023/09/04 01:48:59;;;;;;;6.60;2.88;;;;;;;;;;5070829;28;20047;-75
2023/09/04 01:51:29;;;;;;;8.77;2.80;;;;;;;;;;5072217;28;20028;-75
2023/09/04 01:54:00;;;;;;;6.85;3.17;;;;;;;;;;5080078;28;20055;-75
2023/09/04 01:56:30;;;;;;;5.82;2.97;;;;;;;;;;5081555;28;20052;-75
2023/09/04 01:59:02;;;;;;;6.57;2.70;;;;;;;;;;5079485;28;20403;-76
2023/09/04 02:01:41;;;;;;;6.53;2.90;;;;;;;;;;5079851;28;20052;-76
2023/09/04 02:04:11;;;;;;;5.13;3.28;;;;;;;;;;5081928;28;20051;-77
2023/09/04 02:06:42;;;;;;;6.43;3.17;;;;;;;;;;5079492;28;20056;-75
2023/09/04 02:09:13;;;;;;;4.97;3.20;;;;;;;;;;5080020;28;20058;-75
2023/09/04 02:11:44;;;;;;;5.50;3.17;;;;;;;;;;5081573;28;20071;-77
2023/09/04 02:14:14;;;;;;;4.82;3.28;;;;;;;;;;5079209;28;20044;-75
2023/09/04 02:16:44;;;;;;;9.32;3.25;;;;;;;;;;5080137;28;20048;-75
2023/09/04 02:19:15;;;;;;;5.68;3.55;;;;;;;;;;5082058;28;20056;-76
2023/09/04 02:21:46;;;;;;;5.18;4.07;;;;;;;;;;5080667;28;20527;-76
2023/09/04 02:24:16;;;;;;;4.88;3.67;;;;;;;;;;5079627;28;20060;-77
2023/09/04 02:26:47;;;;;;;6.38;4.20;;;;;;;;;;5079684;28;20056;-76
2023/09/04 02:29:17;;;;;;;5.05;4.13;;;;;;;;;;5080013;28;20051;-78
2023/09/04 02:31:48;;;;;;;5.07;3.70;;;;;;;;;;5080798;28;20052;-77
2023/09/04 02:34:21;;;;;;;6.30;3.88;;;;;;;;;;5079443;28;20048;-77
2023/09/04 02:36:51;;;;;;;6.43;4.47;;;;;;;;;;5081622;28;20040;-76
2023/09/04 02:39:21;;;;;;;4.25;3.53;;;;;;;;;;5081044;28;20897;-77
2023/09/04 02:41:52;;;;;;;5.20;3.67;;;;;;;;;;5083343;28;20047;-76
2023/09/04 02:44:22;;;;;;;8.45;3.70;;;;;;;;;;5085559;28;20514;-74
2023/09/04 02:46:54;;;;;;;6.70;3.53;;;;;;;;;;5085939;28;20044;-76
2023/09/04 02:49:24;;;;;;;3.72;2.72;;;;;;;;;;5085121;28;20541;-75
2023/09/04 02:51:55;;;;;;;7.07;3.28;;;;;;;;;;5085396;28;20052;-77
2023/09/04 02:54:25;;;;;;;3.72;2.50;;;;;;;;;;5085114;28;20063;-77
2023/09/04 02:56:56;;;;;;;4.78;2.88;;;;;;;;;;5084552;28;20052;-76
2023/09/04 02:59:27;;;;;;;4.35;2.75;;;;;;;;;;5085361;28;20032;-74
2023/09/04 03:01:57;;;;;;;5.25;3.00;;;;;;;;;;5084263;28;20048;-75
2023/09/04 03:04:29;;;;;;;5.18;3.30;;;;;;;;;;5084662;28;20047;-76
2023/09/04 03:07:00;;;;;;;5.00;3.17;;;;;;;;;;5084614;28;20503;-75
2023/09/04 03:09:31;;;;;;;4.43;3.15;;;;;;;;;;5082779;28;20048;-75
2023/09/04 03:12:03;;;;;;;12.88;3.03;;;;;;;;;;5082856;28;20058;-76
2023/09/04 03:14:33;;;;;;;8.02;3.38;;;;;;;;;;5081921;28;20048;-77
2023/09/04 03:17:05;;;;;;;5.00;2.95;;;;;;;;;;5085174;28;20048;-76
2023/09/04 03:19:35;;;;;;;8.90;3.30;;;;;;;;;;5082365;28;20055;-77
2023/09/04 03:22:05;;;;;;;8.13;3.20;;;;;;;;;;5084589;28;20048;-77
2023/09/04 03:24:36;;;;;;;6.25;2.90;;;;;;;;;;5084457;28;20056;-75
2023/09/04 03:27:08;;;;;;;9.95;3.28;;;;;;;;;;5082365;28;20534;-77
2023/09/04 03:29:39;;;;;;;7.38;3.55;;;;;;;;;;5066398;28;20110;-75
2023/09/04 03:32:09;;;;;;;7.85;3.53;;;;;;;;;;5082469;28;20044;-77
2023/09/04 03:34:40;;;;;;;8.50;2.70;;;;;;;;;;5085016;28;20040;-76
2023/09/04 03:37:11;;;;;;;9.00;3.08;;;;;;;;;;5082894;28;20051;-75
2023/09/04 03:39:42;;;;;;;5.93;2.97;;;;;;;;;;5083945;28;20525;-75
2023/09/04 03:42:12;;;;;;;8.25;2.50;;;;;;;;;;5082625;28;20880;-75
2023/09/04 03:44:43;;;;;;;6.55;3.30;;;;;;;;;;5082888;28;20048;-76
2023/09/04 03:47:13;;;;;;;4.88;3.35;;;;;;;;;;5083633;28;20048;-74
2023/09/04 03:49:44;;;;;;;6.03;3.03;;;;;;;;;;5083609;28;20074;-76
2023/09/04 03:52:14;;;;;;;4.10;3.00;;;;;;;;;;5082934;28;20043;-76
2023/09/04 03:54:44;;;;;;;7.90;3.25;;;;;;;;;;5082326;28;20098;-77
2023/09/04 03:57:15;;;;;;;3.92;2.92;;;;;;;;;;5082521;28;20397;-76
2023/09/04 03:59:46;;;;;;;7.65;3.22;;;;;;;;;;5082527;28;20342;-77
2023/09/04 04:02:17;;;;;;;6.88;2.92;;;;;;;;;;5083199;28;20055;-77
2023/09/04 04:04:51;;;;;;;13.52;3.55;;;;;;;;;;5081416;28;20062;-77
2023/09/04 04:07:21;;;;;;;6.45;3.50;;;;;;;;;;5081509;28;20063;-75
2023/09/04 04:10:00;;;;;;;9.02;3.25;;;;;;;;;;5083254;28;20158;-76
2023/09/04 04:12:31;;;;;;;6.22;2.80;;;;;;;;;;5083051;28;20418;-77
2023/09/04 04:15:06;;;;;;;9.63;3.42;;;;;;;;;;5081912;28;20048;-76
2023/09/04 04:17:37;;;;;;;10.65;3.22;;;;;;;;;;5081491;28;20063;-76
2023/09/04 04:20:12;;;;;;;12.95;3.35;;;;;;;;;;5081663;28;20048;-75
2023/09/04 04:22:42;;;;;;;9.23;3.42;;;;;;;;;;5082724;28;20063;-76
2023/09/04 04:25:12;;;;;;;5.00;3.30;;;;;;;;;;5083033;28;20055;-77
2023/09/04 04:27:45;;;;;;;7.82;3.85;;;;;;;;;;5083235;28;20048;-76
2023/09/04 04:30:16;;;;;;;8.95;3.00;;;;;;;;;;5083289;28;20062;-76
2023/09/04 04:32:50;;;;;;;6.30;3.15;;;;;;;;;;5081227;28;20059;-77
2023/09/04 04:35:21;;;;;;;8.55;3.45;;;;;;;;;;5082733;28;20058;-76
2023/09/04 04:37:51;;;;;;;6.68;3.05;;;;;;;;;;5080949;28;20118;-76
2023/09/04 04:40:24;;;;;;;8.52;3.53;;;;;;;;;;5081506;28;20056;-76
2023/09/04 04:42:56;;;;;;;6.80;3.30;;;;;;;;;;5081560;28;20047;-75
2023/09/04 04:45:29;;;;;;;6.18;2.95;;;;;;;;;;5081684;28;20395;-76
2023/09/04 04:48:03;;;;;;;5.40;3.53;;;;;;;;;;5064667;28;20457;-75
2023/09/04 04:50:34;;;;;;;5.15;3.00;;;;;;;;;;5081707;28;20048;-76
2023/09/04 04:53:04;;;;;;;8.25;3.72;;;;;;;;;;5064472;28;20047;-75
2023/09/04 04:55:36;;;;;;;15.43;3.58;;;;;;;;;;5082673;28;20039;-75
2023/09/04 04:58:07;;;;;;;8.45;2.90;;;;;;;;;;5081031;28;20762;-75
2023/09/04 05:00:37;;;;;;;10.50;3.20;;;;;;;;;;5080424;28;20048;-75
2023/09/04 05:03:08;;;;;;;7.35;2.90;;;;;;;;;;5080471;28;20059;-75
2023/09/04 05:05:46;;;;;;;7.68;3.40;;;;;;;;;;5080116;28;20052;-76
2023/09/04 05:08:18;;;;;;;4.85;3.20;;;;;;;;;;5080779;28;20044;-76
2023/09/04 05:11:05;;;;;;;5.50;3.38;;;;;;;;;;5080955;28;20055;-76
2023/09/04 05:13:38;;;;;;;6.70;3.50;;;;;;;;;;5080955;28;20214;-76
2023/09/04 05:16:09;;;;;;;10.10;3.58;;;;;;;;;;5080849;28;20056;-75
2023/09/04 05:18:41;;;;;;;7.07;3.65;;;;;;;;;;5080570;28;20419;-78
2023/09/04 05:21:11;;;;;;;4.03;3.30;;;;;;;;;;5080579;28;20059;-76
2023/09/04 05:23:42;;;;;;;8.07;3.20;;;;;;;;;;5079642;28;21072;-77
2023/09/04 05:26:13;;;;;;;7.40;3.38;;;;;;;;;;5080549;28;20043;-77
2023/09/04 05:28:43;;;;;;;6.05;2.92;;;;;;;;;;5082344;28;20048;-77
2023/09/04 05:31:14;;;;;;;3.85;2.88;;;;;;;;;;5081695;28;20054;-77
2023/09/04 05:33:44;;;;;;;7.35;3.47;;;;;;;;;;5082446;28;20048;-77
2023/09/04 05:36:15;;;;;;;5.60;3.35;;;;;;;;;;5081735;28;20048;-79
2023/09/04 05:38:46;;;;;;;6.50;3.20;;;;;;;;;;5081744;28;20050;-77
2023/09/04 05:41:18;;;;;;;4.68;3.40;;;;;;;;;;5082108;28;20051;-76
2023/09/04 05:43:48;;;;;;;6.93;3.38;;;;;;;;;;5081802;28;20044;-76
2023/09/04 05:46:18;;;;;;;8.85;3.63;;;;;;;;;;5080372;28;20052;-78
2023/09/04 05:48:48;;;;;;;9.80;3.65;;;;;;;;;;5080078;28;20527;-76
2023/09/04 05:51:20;;;;;;;6.07;2.70;;;;;;;;;;5080906;28;20491;-80
2023/09/04 05:53:51;;;;;;;8.40;2.80;;;;;;;;;;5082164;28;20043;-77
2023/09/04 05:56:22;;;;;;;6.25;3.13;;;;;;;;;;5081812;28;20048;-78
2023/09/04 05:58:52;;;;;;;4.25;2.90;;;;;;;;;;5081950;28;20051;-74
2023/09/04 06:01:24;;;;;;;5.30;3.00;;;;;;;;;;5081891;28;20875;-78
2023/09/04 06:03:55;;;;;;;6.88;3.55;;;;;;;;;;5081718;28;20048;-78
2023/09/04 06:06:25;;;;;;;5.63;3.67;;;;;;;;;;5082229;28;20051;-77
2023/09/04 06:08:55;;;;;;;15.60;3.88;;;;;;;;;;5082261;28;20044;-77
2023/09/04 06:11:25;;;;;;;11.65;3.70;;;;;;;;;;5081152;28;20055;-77
2023/09/04 06:13:57;;;;;;;10.48;3.33;;;;;;;;;;5080922;28;20403;-79
2023/09/04 06:16:26;;;;;;;7.15;3.60;;;;;;;;;;5083072;28;20044;-79
2023/09/04 06:18:57;;;;;;;5.93;3.47;;;;;;;;;;5084542;28;20052;-78
2023/09/04 06:21:28;;;;;;;4.15;3.38;;;;;;;;;;5086088;28;20048;-76
2023/09/04 06:23:58;;;;;;;7.05;3.55;;;;;;;;;;5085979;28;20048;-75
2023/09/04 06:26:28;;;;;;;5.03;3.60;;;;;;;;;;5085168;28;20859;-75
2023/09/04 06:28:58;;;;;;;10.35;4.00;;;;;;;;;;5085113;28;20530;-77
2023/09/04 06:31:29;;;;;;;5.13;4.03;;;;;;;;;;5084772;28;20051;-76
2023/09/04 06:34:03;;;;;;;5.30;3.50;;;;;;;;;;5085666;28;20515;-78
2023/09/04 06:36:34;;;;;;;7.78;3.50;;;;;;;;;;5084855;28;20063;-77
2023/09/04 06:39:05;;;;;;;11.18;3.75;;;;;;;;;;5086068;28;20075;-77
2023/09/04 06:41:35;;;;;;;7.35;3.58;;;;;;;;;;5086057;28;20051;-77
2023/09/04 06:44:06;;;;;;;7.07;3.28;;;;;;;;;;5085226;28;20418;-78
2023/09/04 06:46:37;;;;;;;5.53;3.55;;;;;;;;;;5084869;28;20068;-80
2023/09/04 06:49:07;;;;;;;5.45;4.22;;;;;;;;;;5084466;28;20048;-78
2023/09/04 06:51:39;;;;;;;4.75;3.15;;;;;;;;;;5083588;28;20435;-77
2023/09/04 06:54:10;;;;;;;8.38;4.13;;;;;;;;;;5083790;28;20044;-76
2023/09/04 06:56:41;;;;;;;5.95;3.75;;;;;;;;;;5084754;28;20450;-78
2023/09/04 06:59:10;;;;;;;23.38;4.07;;;;;;;;;;5084907;28;20052;-78
2023/09/04 07:01:41;;;;;;;4.70;3.30;;;;;;;;;;5084468;28;20094;-76
2023/09/04 07:04:11;;;;;;;6.88;3.95;;;;;;;;;;5083062;28;20491;-76
2023/09/04 07:06:44;;;;;;;6.53;3.78;;;;;;;;;;5085333;28;20056;-76
2023/09/04 07:09:14;;;;;;;11.38;3.75;;;;;;;;;;5083344;28;20052;-75
2023/09/04 07:11:45;;;;;;;6.63;2.95;;;;;;;;;;5084091;28;20403;-76
2023/09/04 07:14:15;;;;;;;8.07;3.28;;;;;;;;;;5084620;28;20040;-76
2023/09/04 07:16:46;;;;;;;7.18;3.28;;;;;;;;;;5083903;28;20044;-75
2023/09/04 07:19:36;;;;;;;16.02;3.25;;;;;;;;;;5084345;28;20047;-77
2023/09/04 07:22:06;;;;;;;8.30;4.18;;;;;;;;;;5084569;28;20335;-77
2023/09/04 07:24:36;;;;;;;43.45;4.05;;;;;;;;;;5083724;28;20511;-79
2023/09/04 07:27:10;;;;;;;16.48;3.05;;;;;;;;;;5084381;28;20075;-75
2023/09/04 07:29:41;;;;;;;11.70;2.47;;;;;;;;;;5083873;28;20491;-76
2023/09/04 07:32:11;;;;;;;4.80;2.67;;;;;;;;;;5084356;28;20450;-78
2023/09/04 07:34:42;;;;;;;4.32;2.72;;;;;;;;;;5082850;28;20066;-77
2023/09/04 07:37:12;;;;;;;7.30;2.72;;;;;;;;;;5083804;28;20417;-77
2023/09/04 07:39:43;;;;;;;7.20;2.63;;;;;;;;;;5084014;28;20051;-77
2023/09/04 07:42:15;;;;;;;4.75;2.17;;;;;;;;;;5083593;28;20521;-80
2023/09/04 07:44:45;;;;;;;5.88;2.38;;;;;;;;;;5083971;28;20040;-78
2023/09/04 07:47:15;;;;;;;4.30;2.58;;;;;;;;;;5083791;28;20054;-79
2023/09/04 07:49:47;;;;;;;4.40;2.53;;;;;;;;;;5083632;28;20056;-77
2023/09/04 07:52:18;;;;;;;6.03;2.63;;;;;;;;;;5083385;28;20503;-79
2023/09/04 07:54:50;;;;;;;5.38;2.20;;;;;;;;;;5082120;28;20048;-80
2023/09/04 07:57:21;;;;;;;6.00;1.92;;;;;;;;;;5084084;28;20048;-77
2023/09/04 07:59:52;;;;;;;3.60;2.33;;;;;;;;;;5083969;28;20048;-80
2023/09/04 08:02:24;;;;;;;6.53;2.33;;;;;;;;;;5083811;28;20056;-76
2023/09/04 08:04:54;;;;;;;8.40;1.50;;;;;;;;;;5085081;28;20086;-80
2023/09/04 08:07:24;;;;;;;3.10;1.80;;;;;;;;;;5082153;28;20130;-77
2023/09/04 08:09:56;;;;;;;2.53;1.70;;;;;;;;;;5083325;28;20048;-78
2023/09/04 08:12:26;;;;;;;4.22;1.85;;;;;;;;;;5082751;28;20522;-77
2023/09/04 08:14:56;;;;;;;8.52;1.95;;;;;;;;;;5083675;28;20071;-77
2023/09/04 08:17:27;;;;;;;1.45;1.00;;;;;;;;;;5081703;28;20059;-75
2023/09/04 08:19:57;;;;;;;3.25;1.08;;;;;;;;;;5083105;28;20418;-79
2023/09/04 08:22:28;;;;;;;2.85;1.00;;;;;;;;;;5083094;28;20511;-77
2023/09/04 08:24:59;;;;;;;1.63;0.90;;;;;;;;;;5082978;28;20399;-78
2023/09/04 08:27:29;;;;;;;3.97;1.35;;;;;;;;;;5082367;28;20048;-78
2023/09/04 08:30:00;;;;;;;1.20;1.10;;;;;;;;;;5082934;28;20564;-78
2023/09/04 08:32:32;;;;;;;1.52;1.15;;;;;;;;;;5083086;28;20059;-78
2023/09/04 08:35:03;;;;;;;2.85;0.90;;;;;;;;;;5082112;28;20511;-79
2023/09/04 08:37:34;;;;;;;1.27;1.05;;;;;;;;;;5082603;28;20442;-79
2023/09/04 08:40:05;;;;;;;2.45;1.30;;;;;;;;;;5082623;28;20055;-79
2023/09/04 08:42:38;;;;;;;1.30;1.00;;;;;;;;;;5083612;28;20062;-75
2023/09/04 08:45:10;;;;;;;1.58;0.93;;;;;;;;;;5082390;28;20040;-76
2023/09/04 08:47:41;;;;;;;3.30;1.08;;;;;;;;;;5082689;28;20047;-78
2023/09/04 08:50:12;;;;;;;1.02;0.80;;;;;;;;;;5082496;28;20043;-77
2023/09/04 08:52:43;;;;;;;3.15;0.90;;;;;;;;;;5082816;28;20055;-78
2023/09/04 08:55:15;;;;;;;2.15;0.90;;;;;;;;;;5083246;28;20048;-78
2023/09/04 08:57:47;;;;;;;1.70;1.10;;;;;;;;;;5082396;28;20044;-76
2023/09/04 09:00:18;;;;;;;1.40;1.05;;;;;;;;;;5082323;28;20388;-77
2023/09/04 09:02:50;;;;;;;1.95;0.93;;;;;;;;;;5082129;28;20043;-76
2023/09/04 09:05:21;;;;;;;3.60;0.70;;;;;;;;;;5082659;28;20044;-75
2023/09/04 09:07:53;;;;;;;2.10;0.70;;;;;;;;;;5082496;28;20052;-78
2023/09/04 09:10:25;;;;;;;1.00;0.70;;;;;;;;;;5082173;28;20531;-74
2023/09/04 09:12:56;;;;;;;1.65;0.90;;;;;;;;;;5082162;28;20043;-77
2023/09/04 09:15:30;;;;;;;0.80;0.80;;;;;;;;;;5082504;28;20052;-77
2023/09/04 09:18:00;;;;;;;3.25;1.00;;;;;;;;;;5080644;28;20052;-75
2023/09/04 09:20:39;;;;;;;3.75;1.15;;;;;;;;;;5082771;28;20057;-77
2023/09/04 09:23:09;;;;;;;3.47;1.40;;;;;;;;;;5082069;28;20060;-75
2023/09/04 09:25:39;;;;;;;1.70;1.30;;;;;;;;;;5081805;28;20047;-75
2023/09/04 09:28:09;;;;;;;4.38;2.15;;;;;;;;;;5082218;28;20055;-75
2023/09/04 09:30:42;;;;;;;2.55;1.67;;;;;;;;;;5082259;28;20048;-77
2023/09/04 09:33:12;;;;;;;5.03;1.70;;;;;;;;;;5082202;28;20047;-75
2023/09/04 09:35:44;;;;;;;3.83;1.80;;;;;;;;;;5081166;28;20059;-77
2023/09/04 09:38:14;;;;;;;8.02;1.98;;;;;;;;;;5081908;28;20074;-76
2023/09/04 09:40:45;;;;;;;6.10;1.77;;;;;;;;;;5082351;28;20071;-75
2023/09/04 09:43:16;;;;;;;2.95;1.70;;;;;;;;;;5082132;28;20050;-77
2023/09/04 09:45:50;;;;;;;1.30;1.20;;;;;;;;;;5080681;28;20526;-78
2023/09/04 09:48:23;;;;;;;0.90;0.90;;;;;;;;;;5081412;28;20059;-77
2023/09/04 09:50:55;;;;;;;7.43;1.00;;;;;;;;;;5082334;28;20056;-81
2023/09/04 09:53:26;;;;;;;0.90;0.77;;;;;;;;;;5081410;28;20052;-81
2023/09/04 09:55:57;;;;;;;4.63;1.17;;;;;;;;;;5081678;28;20063;-79
2023/09/04 09:58:27;;;;;;;9.30;0.70;;;;;;;;;;5072574;28;20047;-80
2023/09/04 10:00:59;;;;;;;6.13;0.70;;;;;;;;;;5060369;28;20538;-78
2023/09/04 10:03:30;;;;;;;0.43;0.43;;;;;;;;;;5063374;28;20055;-76
2023/09/04 10:06:06;;;;;;;0.30;0.30;;;;;;;;;;5061746;28;20056;-79
2023/09/04 10:08:47;;;;;;;;;;;;;;;;;;5062492;28;20047;-78
2023/09/04 10:11:18;;;;;;;0.73;0.40;;;;;;;;;;5062283;28;19924;-77
2023/09/04 10:13:49;;;;;;;2.10;0.30;;;;;;;;;;5062468;28;20056;-77
2023/09/04 10:16:33;;;;;;;0.38;0.35;;;;;;;;;;5061752;28;20040;-74
2023/09/04 10:19:04;;;;;;;0.70;0.15;;;;;;;;;;5061752;28;20052;-77
2023/09/04 10:21:41;;;;;;;0.63;0.28;;;;;;;;;;5062671;28;20044;-76
2023/09/04 10:24:14;;;;;;;0.35;0.13;;;;;;;;;;5062364;28;20411;-78
2023/09/04 10:27:14;;;;;;;0.30;0.30;;;;;;;;;;5062725;28;20045;-76
2023/09/04 10:29:52;;;;;;;0.85;0.40;;;;;;;;;;5051445;28;20052;-77
2023/09/04 10:32:25;;;;;;;0.38;0.38;;;;;;;;;;5063029;28;20045;-76
2023/09/04 10:34:58;;;;;;;0.30;0.30;;;;;;;;;;5061908;28;20059;-77
2023/09/04 10:37:33;;;;;;;0.38;0.38;;;;;;;;;;5062388;28;20052;-75
2023/09/04 10:40:06;;;;;;;0.60;0.40;;;;;;;;;;5061442;28;20419;-79
2023/09/04 10:42:41;;;;;;;0.75;0.68;;;;;;;;;;5061204;28;20055;-79
2023/09/04 10:45:16;;;;;;;0.75;0.50;;;;;;;;;;5060977;28;20040;-83
2023/09/04 10:47:51;;;;;;;16.52;4.15;;;;;;;;;;5060969;28;20052;-80
2023/09/04 10:50:35;;;;;;;3.40;1.42;;;;;;;;;;5064271;28;20048;-78
2023/09/04 10:53:08;;;;;;;0.68;0.60;;;;;;;;;;5059716;28;20054;-78
2023/09/04 10:55:39;;;;;;;2.33;0.60;;;;;;;;;;5061762;28;20047;-82
2023/09/04 10:58:10;;;;;;;0.95;0.70;;;;;;;;;;5059624;28;20052;-77
2023/09/04 11:00:41;;;;;;;0.55;0.55;;;;;;;;;;5061653;28;20421;-82
2023/09/04 11:03:23;;;;;;;1.58;0.60;;;;;;;;;;5063181;28;20055;-77
2023/09/04 11:06:07;;;;;;;1.58;0.70;;;;;;;;;;5064133;28;20044;-77
2023/09/04 11:08:49;;;;;;;1.58;0.80;;;;;;;;;;5063751;28;20679;-77
2023/09/04 11:11:26;;;;;;;0.70;0.60;;;;;;;;;;5064893;28;20049;-78
2023/09/04 11:14:11;;;;;;;1.83;1.40;;;;;;;;;;5066023;28;20044;-80
2023/09/04 11:16:50;;;;;;;1.13;0.73;;;;;;;;;;5064836;28;20048;-82
2023/09/04 11:19:21;;;;;;;2.15;0.60;;;;;;;;;;5064408;28;20500;-78
2023/09/04 11:21:52;;;;;;;3.22;0.98;;;;;;;;;;5064126;28;20056;-79
2023/09/04 11:24:25;;;;;;;4.88;1.25;;;;;;;;;;5064096;28;20056;-77
2023/09/04 11:26:56;;;;;;;2.45;1.08;;;;;;;;;;5064662;28;20052;-77
2023/09/04 11:29:27;;;;;;;3.75;0.70;;;;;;;;;;5064050;28;20063;-77
2023/09/04 11:31:57;;;;;;;2.53;0.80;;;;;;;;;;5063955;28;20059;-78
2023/09/04 11:34:38;;;;;;;2.50;0.90;;;;;;;;;;5063900;28;20457;-81
2023/09/04 11:37:10;;;;;;;2.83;0.82;;;;;;;;;;5063318;28;20055;-80
2023/09/04 11:39:57;;;;;;;2.75;0.80;;;;;;;;;;5063160;28;20048;-79
2023/09/04 11:42:33;;;;;;;3.47;1.10;;;;;;;;;;5062915;28;20621;-78
2023/09/04 11:45:06;;;;;;;5.15;1.60;;;;;;;;;;5067341;28;20610;-79
2023/09/04 11:47:38;;;;;;;4.15;1.70;;;;;;;;;;5072252;28;20049;-80
2023/09/04 11:50:15;;;;;;;9.27;1.27;;;;;;;;;;5063365;28;20049;-78
2023/09/04 11:52:46;;;;;;;5.05;1.10;;;;;;;;;;5078385;28;20048;-78
2023/09/04 11:55:18;;;;;;;2.70;1.63;;;;;;;;;;5063743;28;20048;-78
2023/09/04 11:57:50;;;;;;;4.45;1.40;;;;;;;;;;5062742;28;20041;-78
2023/09/04 12:00:21;;;;;;;2.55;1.58;;;;;;;;;;5066972;28;20051;-79
2023/09/04 12:02:52;;;;;;;1.48;1.15;;;;;;;;;;5064797;28;20479;-80
2023/09/04 12:05:25;;;;;;;12.90;2.17;;;;;;;;;;5061714;28;20059;-79
2023/09/04 12:07:56;;;;;;;5.38;2.90;;;;;;;;;;5061365;28;20403;-79
2023/09/04 12:10:26;;;;;;;3.05;2.47;;;;;;;;;;5062731;28;20044;-77
2023/09/04 12:12:56;;;;;;;4.53;2.75;;;;;;;;;;5063861;28;20048;-79
2023/09/04 12:15:34;;;;;;;9.48;3.42;;;;;;;;;;5061030;28;20044;-78
2023/09/04 12:18:06;;;;;;;2.25;1.83;;;;;;;;;;5062549;28;20056;-76
2023/09/04 12:20:40;;;;;;;3.70;1.90;;;;;;;;;;5062973;28;20040;-79
2023/09/04 12:23:11;;;;;;;2.35;1.20;;;;;;;;;;5061592;28;20064;-76
2023/09/04 12:25:45;;;;;;;2.22;2.03;;;;;;;;;;5062703;28;20412;-78
2023/09/04 12:28:19;;;;;;;5.63;4.07;;;;;;;;;;5062292;28;20063;-77
2023/09/04 12:30:51;;;;;;;3.15;2.78;;;;;;;;;;5063163;28;20104;-78
2023/09/04 12:33:21;;;;;;;3.47;2.35;;;;;;;;;;5064879;28;20044;-77
2023/09/04 12:35:59;;;;;;;4.15;2.90;;;;;;;;;;5063551;28;20063;-77
2023/09/04 12:38:30;;;;;;;6.47;3.20;;;;;;;;;;5082105;28;20059;-77
2023/09/04 12:41:02;;;;;;;4.18;3.38;;;;;;;;;;5082482;28;20404;-80
2023/09/04 12:43:32;;;;;;;6.22;3.85;;;;;;;;;;5080467;28;20052;-77
2023/09/04 12:46:03;;;;;;;3.47;2.30;;;;;;;;;;5083660;28;20142;-76
2023/09/04 12:48:35;;;;;;;7.75;2.45;;;;;;;;;;5082571;28;20052;-76
2023/09/04 12:51:07;;;;;;;1.85;1.52;;;;;;;;;;5082094;28;20417;-76
2023/09/04 12:53:38;;;;;;;1.95;1.63;;;;;;;;;;5080715;28;20048;-77
2023/09/04 12:56:08;;;;;;;1.50;1.40;;;;;;;;;;5082472;28;20382;-76
2023/09/04 12:58:39;;;;;;;1.58;1.33;;;;;;;;;;5083481;28;20407;-80
2023/09/04 13:01:10;;;;;;;3.97;1.40;;;;;;;;;;5081405;28;20044;-78
2023/09/04 13:03:41;;;;;;;5.07;1.58;;;;;;;;;;5066235;28;20864;-77
2023/09/04 13:06:11;;;;;;;5.68;1.70;;;;;;;;;;5082696;28;20059;-77
2023/09/04 13:08:43;;;;;;;1.75;1.65;;;;;;;;;;5081208;28;20498;-77
2023/09/04 13:11:13;;;;;;;1.50;1.40;;;;;;;;;;5082694;28;20044;-76
2023/09/04 13:13:44;;;;;;;11.02;1.73;;;;;;;;;;5082451;28;20051;-78
2023/09/04 13:16:14;;;;;;;3.60;2.80;;;;;;;;;;5081060;28;20499;-78
2023/09/04 13:18:47;;;;;;;2.40;1.65;;;;;;;;;;5081693;28;20044;-77
2023/09/04 13:21:18;;;;;;;6.05;1.40;;;;;;;;;;5080824;28;20055;-78
2023/09/04 13:23:51;;;;;;;6.07;1.52;;;;;;;;;;5080850;28;20063;-79
2023/09/04 13:26:23;;;;;;;12.77;2.20;;;;;;;;;;5078882;28;20048;-76
2023/09/04 13:28:53;;;;;;;5.03;2.45;;;;;;;;;;5082380;28;20518;-77
2023/09/04 13:31:24;;;;;;;3.63;2.67;;;;;;;;;;5081430;28;20051;-79
2023/09/04 13:33:55;;;;;;;5.47;2.33;;;;;;;;;;5081170;28;20040;-79
2023/09/04 13:36:25;;;;;;;2.88;2.05;;;;;;;;;;5081111;28;20048;-78
2023/09/04 13:38:55;;;;;;;1.60;1.40;;;;;;;;;;5080823;28;20036;-76
2023/09/04 13:41:26;;;;;;;3.08;2.00;;;;;;;;;;5082155;28;20052;-76
2023/09/04 13:43:57;;;;;;;5.35;2.00;;;;;;;;;;5081785;28;20048;-77
2023/09/04 13:46:27;;;;;;;5.15;1.92;;;;;;;;;;5081549;28;20048;-79
2023/09/04 13:48:59;;;;;;;3.80;2.83;;;;;;;;;;5081394;28;20538;-76
2023/09/04 13:51:29;;;;;;;9.63;2.42;;;;;;;;;;5081394;28;20056;-76
2023/09/04 13:54:01;;;;;;;4.18;2.67;;;;;;;;;;5081853;28;20399;-80
2023/09/04 13:56:32;;;;;;;5.38;2.72;;;;;;;;;;5080719;28;20578;-79
2023/09/04 13:59:03;;;;;;;4.78;3.90;;;;;;;;;;5082018;28;20648;-78
2023/09/04 14:01:33;;;;;;;3.45;3.10;;;;;;;;;;5081499;28;20039;-79
2023/09/04 14:04:05;;;;;;;4.60;4.05;;;;;;;;;;5081381;28;20399;-78
2023/09/04 14:06:36;;;;;;;6.47;4.18;;;;;;;;;;5081150;28;20055;-78
2023/09/04 14:09:07;;;;;;;7.30;3.95;;;;;;;;;;5081643;28;20609;-78
2023/09/04 14:11:37;;;;;;;11.27;3.92;;;;;;;;;;5081602;28;20044;-76
2023/09/04 14:14:08;;;;;;;4.93;2.50;;;;;;;;;;5081219;28;20048;-78
2023/09/04 14:16:40;;;;;;;3.85;2.75;;;;;;;;;;5079448;28;20051;-79
2023/09/04 14:19:15;;;;;;;3.05;2.63;;;;;;;;;;5079327;28;20052;-79
2023/09/04 14:21:46;;;;;;;2.97;2.08;;;;;;;;;;5081900;28;20043;-78
2023/09/04 14:24:17;;;;;;;4.40;2.10;;;;;;;;;;5079986;28;20079;-81
2023/09/04 14:26:49;;;;;;;5.43;3.47;;;;;;;;;;5081860;28;20435;-84
2023/09/04 14:29:21;;;;;;;3.20;2.55;;;;;;;;;;5079491;28;20055;-78
2023/09/04 14:31:53;;;;;;;3.13;2.58;;;;;;;;;;5081940;28;20585;-78
2023/09/04 14:34:25;;;;;;;2.88;1.83;;;;;;;;;;5082266;28;20036;-77
2023/09/04 14:36:56;;;;;;;1.70;1.60;;;;;;;;;;5081658;28;20044;-76
2023/09/04 14:39:46;;;;;;;4.10;1.70;;;;;;;;;;5085540;28;20052;-77
2023/09/04 14:42:17;;;;;;;2.10;1.60;;;;;;;;;;5083423;28;20075;-77
2023/09/04 14:44:51;;;;;;;2.60;2.05;;;;;;;;;;5085906;28;20055;-76
2023/09/04 14:47:24;;;;;;;2.05;1.85;;;;;;;;;;5083388;28;20055;-82
2023/09/04 14:49:57;;;;;;;8.52;2.63;;;;;;;;;;5084841;28;20411;-79
2023/09/04 14:52:30;;;;;;;5.80;2.10;;;;;;;;;;5085520;28;20059;-75
2023/09/04 14:55:01;;;;;;;2.03;1.83;;;;;;;;;;5084993;28;20482;-76
2023/09/04 14:57:32;;;;;;;5.32;2.90;;;;;;;;;;5085253;28;20054;-76
2023/09/04 15:00:04;;;;;;;3.72;3.20;;;;;;;;;;5085702;28;20043;-77
2023/09/04 15:02:36;;;;;;;3.33;3.03;;;;;;;;;;5084722;28;20044;-77
2023/09/04 15:05:08;;;;;;;4.97;4.32;;;;;;;;;;5082899;28;20056;-81
2023/09/04 15:07:42;;;;;;;7.13;3.85;;;;;;;;;;5066710;28;20051;-78
2023/09/04 15:10:13;;;;;;;4.75;3.08;;;;;;;;;;5083375;28;20059;-81
2023/09/04 15:12:44;;;;;;;4.55;3.30;;;;;;;;;;5085640;28;20055;-83